Time;durP1;ratioP1;P1;durP2;ratioP2;P2;SDS_P1;SDS_P2;PMS_P1;PMS_P2;Temp;Humidity;BMP_temperature;BMP_pressure;BME280_temperature;BME280_humidity;BME280_pressure;Samples;Min_cycle;Max_cycle;Signal;HPM_P1;HPM_P2
2022/10/03 00:02:00;;;;;;;0.00;0.00;;;;;;;10.12;100.00;99547.03;4951779;28;20368;-63
2022/10/03 00:04:50;;;;;;;0.00;0.00;;;;;;;10.07;100.00;99550.03;4982656;28;20291;-65
2022/10/03 00:07:39;;;;;;;0.00;0.00;;;;;;;10.15;100.00;99547.63;4981392;28;20692;-63
2022/10/03 00:10:20;;;;;;;0.00;0.00;;;;;;;10.26;100.00;99548.53;4980836;28;20234;-63
2022/10/03 00:13:04;;;;;;;0.00;0.00;;;;;;;10.33;100.00;99545.28;4984747;28;20234;-63
2022/10/03 00:15:36;;;;;;;0.00;0.00;;;;;;;10.43;100.00;99540.19;4983679;28;20613;-63
2022/10/03 00:18:12;;;;;;;0.00;0.00;;;;;;;10.47;100.00;99532.91;4985362;28;20568;-63
2022/10/03 00:20:51;;;;;;;0.00;0.00;;;;;;;10.48;100.00;99530.19;4986145;28;20332;-63
2022/10/03 00:23:28;;;;;;;0.00;0.00;;;;;;;10.48;100.00;99534.56;4985144;28;20718;-63
2022/10/03 00:26:25;;;;;;;0.00;0.00;;;;;;;10.50;100.00;99531.84;4984829;28;20781;-63
2022/10/03 00:28:59;;;;;;;0.00;0.00;;;;;;;10.47;100.00;99541.56;4986835;28;20250;-63
2022/10/03 00:31:41;;;;;;;0.00;0.00;;;;;;;10.33;100.00;99537.44;4966523;28;20596;-63
2022/10/03 00:34:20;;;;;;;0.00;0.00;;;;;;;10.21;100.00;99537.66;4982677;28;20238;-63
2022/10/03 00:37:00;;;;;;;0.00;0.00;;;;;;;10.06;100.00;99543.16;4985980;28;20230;-63
2022/10/03 00:39:40;;;;;;;0.00;0.00;;;;;;;9.95;100.00;99544.03;4974092;28;20276;-63
2022/10/03 00:42:59;;;;;;;0.00;0.00;;;;;;;9.77;100.00;99548.13;4983632;28;20745;-63
2022/10/03 00:45:55;;;;;;;0.00;0.00;;;;;;;9.59;100.00;99554.66;4986702;28;20316;-63
2022/10/03 00:48:49;;;;;;;0.00;0.00;;;;;;;9.48;100.00;99551.25;4984103;28;20235;-63
2022/10/03 00:51:39;;;;;;;0.00;0.00;;;;;;;9.41;100.00;99554.34;4983649;28;20226;-63
2022/10/03 00:54:22;;;;;;;0.00;0.00;;;;;;;9.24;100.00;99560.03;4982491;28;20273;-66
2022/10/03 00:57:07;;;;;;;0.00;0.00;;;;;;;9.12;100.00;99564.44;4982827;28;20338;-67
2022/10/03 00:59:51;;;;;;;0.00;0.00;;;;;;;9.05;100.00;99564.06;4984363;28;21176;-66
2022/10/03 01:02:46;;;;;;;0.00;0.00;;;;;;;8.98;100.00;99568.94;4982015;28;20233;-67
2022/10/03 01:05:21;;;;;;;0.00;0.00;;;;;;;8.85;100.00;99574.25;4983304;28;20709;-67
2022/10/03 01:08:06;;;;;;;0.00;0.00;;;;;;;8.83;100.00;99581.34;4985297;28;20220;-67
2022/10/03 01:10:44;;;;;;;0.00;0.00;;;;;;;8.77;100.00;99594.81;4983715;28;20220;-67
2022/10/03 01:13:32;;;;;;;0.00;0.00;;;;;;;8.70;100.00;99589.22;4982221;28;20242;-66
2022/10/03 01:16:11;;;;;;;0.00;0.00;;;;;;;8.69;100.00;99597.97;4984781;28;20710;-66
2022/10/03 01:18:53;;;;;;;0.00;0.00;;;;;;;8.63;100.00;99601.03;4988330;28;20223;-67
2022/10/03 01:21:32;;;;;;;0.00;0.00;;;;;;;8.62;100.00;99604.59;4986301;28;20718;-67
2022/10/03 01:24:32;;;;;;;0.00;0.00;;;;;;;8.63;100.00;99610.63;4985952;28;20621;-67
2022/10/03 01:27:03;;;;;;;0.00;0.00;;;;;;;8.62;100.00;99604.59;4979987;28;20710;-67
2022/10/03 01:32:44;;;;;;;0.00;0.00;;;;;;;8.60;100.00;99606.47;4986083;28;20230;-67
2022/10/03 01:35:22;;;;;;;0.00;0.00;;;;;;;8.53;100.00;99608.72;4986196;28;20236;-66
2022/10/03 01:37:57;;;;;;;0.00;0.00;;;;;;;8.47;100.00;99601.34;4989368;28;20307;-66
2022/10/03 01:40:30;;;;;;;0.00;0.00;;;;;;;8.42;100.00;99601.69;4986707;28;20237;-66
2022/10/03 01:43:05;;;;;;;0.00;0.00;;;;;;;8.33;100.00;99606.72;4985961;28;20246;-66
2022/10/03 01:45:46;;;;;;;0.00;0.00;;;;;;;8.26;100.00;99619.34;4988951;28;20253;-66
2022/10/03 01:48:21;;;;;;;0.00;0.00;;;;;;;8.22;100.00;99617.91;4986732;28;20553;-66
2022/10/03 01:50:57;;;;;;;0.00;0.00;;;;;;;8.18;100.00;99619.06;4972974;28;20307;-66
2022/10/03 01:53:32;;;;;;;0.00;0.00;;;;;;;8.12;100.00;99618.56;4987415;28;20772;-66
2022/10/03 01:56:08;;;;;;;0.00;0.00;;;;;;;8.04;100.00;99614.84;4987205;28;20232;-66
2022/10/03 01:58:46;;;;;;;0.00;0.00;;;;;;;8.02;100.00;99612.38;4988039;28;20242;-66
2022/10/03 02:01:24;;;;;;;0.00;0.00;;;;;;;8.00;100.00;99603.84;4969326;28;20242;-66
2022/10/03 02:03:57;;;;;;;0.00;0.00;;;;;;;7.98;100.00;99605.72;4987286;28;20236;-66
2022/10/03 02:06:32;;;;;;;0.00;0.00;;;;;;;7.95;100.00;99611.97;4988506;28;20296;-66
2022/10/03 02:09:06;;;;;;;0.00;0.00;;;;;;;7.92;100.00;99611.38;4987075;28;20789;-66
2022/10/03 02:11:38;;;;;;;0.00;0.00;;;;;;;7.93;100.00;99616.47;4987732;28;20291;-66
2022/10/03 02:14:20;;;;;;;0.00;0.00;;;;;;;7.96;100.00;99616.22;4986048;28;20722;-66
2022/10/03 02:16:57;;;;;;;0.00;0.00;;;;;;;8.00;100.00;99619.44;4988515;28;20228;-66
2022/10/03 02:19:28;;;;;;;0.00;0.00;;;;;;;7.94;100.00;99614.69;4969610;28;20304;-66
2022/10/03 02:21:57;;;;;;;0.00;0.00;;;;;;;7.90;100.00;99613.25;4987286;28;20323;-66
2022/10/03 02:24:41;;;;;;;0.00;0.00;;;;;;;7.90;100.00;99611.50;4990743;28;20234;-66
2022/10/03 02:27:37;;;;;;;0.00;0.00;;;;;;;7.97;100.00;99619.66;4985881;28;20234;-66
2022/10/03 02:30:12;;;;;;;0.00;0.00;;;;;;;8.05;100.00;99619.09;4986944;28;20236;-66
2022/10/03 02:33:25;;;;;;;0.00;0.00;;;;;;;8.04;100.00;99620.88;4989291;28;20319;-66
2022/10/03 02:36:10;;;;;;;0.00;0.00;;;;;;;8.01;100.00;99613.31;4982598;28;20238;-66
2022/10/03 02:39:11;;;;;;;0.00;0.00;;;;;;;7.91;100.00;99607.09;4989875;28;20234;-66
2022/10/03 02:42:05;;;;;;;0.00;0.00;;;;;;;7.82;100.00;99606.81;4984533;28;20239;-67
2022/10/03 02:44:58;;;;;;;0.00;0.00;;;;;;;7.83;100.00;99605.88;4976755;28;20293;-67
2022/10/03 02:48:04;;;;;;;0.00;0.00;;;;;;;7.72;100.00;99598.00;4986083;28;20265;-67
2022/10/03 02:50:52;;;;;;;0.00;0.00;;;;;;;7.66;100.00;99591.50;4986957;28;20237;-67
2022/10/03 02:53:52;;;;;;;0.00;0.00;;;;;;;7.64;100.00;99590.78;4988493;28;20237;-67
2022/10/03 02:56:47;;;;;;;0.00;0.00;;;;;;;7.58;100.00;99586.00;4986894;28;20269;-66
2022/10/03 02:59:41;;;;;;;0.00;0.00;;;;;;;7.58;100.00;99587.75;4985436;28;20296;-66
2022/10/03 03:02:32;;;;;;;0.00;0.00;;;;;;;7.46;100.00;99586.84;4984410;28;20987;-66
2022/10/03 03:05:27;;;;;;;0.00;0.00;;;;;;;7.42;100.00;99588.00;4985377;28;20233;-66
2022/10/03 03:08:28;;;;;;;0.00;0.00;;;;;;;7.44;100.00;99593.94;4967853;28;20705;-66
2022/10/03 03:11:30;;;;;;;0.00;0.00;;;;;;;7.42;100.00;99593.19;4984974;28;20288;-66
2022/10/03 03:14:27;;;;;;;0.00;0.00;;;;;;;7.32;100.00;99588.66;4949293;28;20291;-66
2022/10/03 03:17:07;;;;;;;0.00;0.00;;;;;;;7.32;100.00;99601.63;4985161;28;20288;-66
2022/10/03 03:19:58;;;;;;;0.00;0.00;;;;;;;7.34;100.00;99591.97;4986643;28;20328;-66
2022/10/03 03:22:36;;;;;;;0.00;0.00;;;;;;;7.38;100.00;99577.84;4981322;28;20271;-66
2022/10/03 03:25:22;;;;;;;0.00;0.00;;;;;;;7.32;100.00;99585.22;4984186;28;20283;-66
2022/10/03 03:28:03;;;;;;;0.07;0.07;;;;;;;7.29;100.00;99575.88;4987912;28;20233;-66
2022/10/03 03:30:36;;;;;;;0.00;0.00;;;;;;;7.30;100.00;99582.72;4984837;28;20645;-66
2022/10/03 03:33:11;;;;;;;0.00;0.00;;;;;;;7.31;100.00;99584.38;4983857;28;20241;-66
2022/10/03 03:35:56;;;;;;;0.00;0.00;;;;;;;7.21;100.00;99583.34;4987395;28;20309;-66
2022/10/03 03:38:31;;;;;;;0.00;0.00;;;;;;;7.18;100.00;99587.00;4985444;28;20226;-66
2022/10/03 03:41:26;;;;;;;0.00;0.00;;;;;;;7.13;100.00;99586.50;4984405;28;20720;-66
2022/10/03 03:44:07;;;;;;;0.00;0.00;;;;;;;7.12;100.00;99581.38;4984016;28;20233;-66
2022/10/03 03:46:46;;;;;;;0.00;0.00;;;;;;;7.14;100.00;99582.13;4985427;28;20265;-66
2022/10/03 03:49:31;;;;;;;0.00;0.00;;;;;;;7.09;100.00;99582.44;4984038;28;20686;-66
2022/10/03 03:52:12;;;;;;;0.00;0.00;;;;;;;7.07;100.00;99592.91;4983191;28;20287;-66
2022/10/03 03:55:00;;;;;;;0.00;0.00;;;;;;;7.13;100.00;99591.69;4986411;28;20237;-66
2022/10/03 03:57:59;;;;;;;0.00;0.00;;;;;;;7.03;100.00;99603.63;4983905;28;20234;-66
2022/10/03 04:00:38;;;;;;;0.00;0.00;;;;;;;7.02;100.00;99604.56;4978842;28;20578;-66
2022/10/03 04:03:26;;;;;;;0.00;0.00;;;;;;;6.97;100.00;99604.03;4965466;28;20823;-66
2022/10/03 04:06:09;;;;;;;0.00;0.00;;;;;;;6.92;100.00;99606.94;4984020;28;20244;-66
2022/10/03 04:09:01;;;;;;;0.00;0.00;;;;;;;6.90;100.00;99607.03;4986565;28;20323;-66
2022/10/03 04:11:37;;;;;;;0.00;0.00;;;;;;;6.98;100.00;99597.91;4971244;28;20843;-66
2022/10/03 04:14:29;;;;;;;0.00;0.00;;;;;;;6.93;100.00;99604.25;4983621;28;20236;-66
2022/10/03 04:20:12;;;;;;;0.10;0.10;;;;;;;6.92;100.00;99602.59;4981470;28;20237;-66
2022/10/03 04:22:53;;;;;;;0.10;0.10;;;;;;;6.93;100.00;99612.03;4985418;28;20303;-66
2022/10/03 04:25:39;;;;;;;0.00;0.00;;;;;;;6.99;100.00;99628.94;4983054;28;20225;-66
2022/10/03 04:28:25;;;;;;;0.00;0.00;;;;;;;6.99;100.00;99628.94;4981493;28;20777;-66
2022/10/03 04:31:05;;;;;;;0.00;0.00;;;;;;;6.91;100.00;99624.28;4982808;28;20221;-67
2022/10/03 04:33:46;;;;;;;0.00;0.00;;;;;;;6.84;100.00;99620.44;4987203;28;20235;-66
2022/10/03 04:36:39;;;;;;;0.00;0.00;;;;;;;6.76;100.00;99633.94;4984577;28;20237;-66
2022/10/03 04:39:14;;;;;;;0.03;0.03;;;;;;;6.73;100.00;99639.31;4941418;28;20304;-66
2022/10/03 04:41:50;;;;;;;0.00;0.00;;;;;;;6.81;100.00;99638.81;4987130;28;20357;-66
2022/10/03 04:44:32;;;;;;;0.00;0.00;;;;;;;6.76;100.00;99636.53;4984529;28;20237;-66
2022/10/03 04:47:08;;;;;;;0.00;0.00;;;;;;;6.76;100.00;99623.53;4978496;28;20237;-66
2022/10/03 04:49:43;;;;;;;0.00;0.00;;;;;;;6.76;100.00;99623.53;4987431;28;20229;-66
2022/10/03 04:52:18;;;;;;;0.00;0.00;;;;;;;6.75;100.00;99634.00;4982863;28;20241;-66
2022/10/03 04:54:56;;;;;;;0.00;0.00;;;;;;;6.71;100.00;99636.00;4992530;28;20235;-66
2022/10/03 04:57:31;;;;;;;0.00;0.00;;;;;;;6.65;100.00;99631.22;4988964;28;20236;-66
2022/10/03 05:00:07;;;;;;;0.00;0.00;;;;;;;6.60;100.00;99623.72;4987480;28;20401;-66
2022/10/03 05:02:48;;;;;;;0.00;0.00;;;;;;;6.57;100.00;99620.50;4990044;28;20236;-66
2022/10/03 05:05:35;;;;;;;0.03;0.03;;;;;;;6.60;100.00;99623.72;4987678;28;20249;-66
2022/10/03 05:08:12;;;;;;;0.00;0.00;;;;;;;6.59;100.00;99621.22;4989616;28;20889;-66
2022/10/03 05:10:56;;;;;;;0.00;0.00;;;;;;;6.74;100.00;99634.94;4990933;28;20295;-66
2022/10/03 05:13:38;;;;;;;0.00;0.00;;;;;;;6.79;100.00;99636.31;4987417;28;20594;-66
2022/10/03 05:16:14;;;;;;;0.10;0.10;;;;;;;6.79;100.00;99638.06;4986331;28;20299;-66
2022/10/03 05:18:47;;;;;;;0.00;0.00;;;;;;;6.78;100.00;99646.78;4992092;28;20268;-66
2022/10/03 05:21:22;;;;;;;0.00;0.00;;;;;;;6.75;100.00;99649.59;4987878;28;20307;-66
2022/10/03 05:24:01;;;;;;;0.00;0.00;;;;;;;6.76;100.00;99652.09;4975976;28;20290;-66
2022/10/03 05:26:40;;;;;;;0.00;0.00;;;;;;;6.76;100.00;99664.22;4987027;28;20237;-66
2022/10/03 05:29:18;;;;;;;0.00;0.00;;;;;;;6.82;100.00;99663.00;4985179;28;20233;-66
2022/10/03 05:31:55;;;;;;;0.00;0.00;;;;;;;6.73;100.00;99673.06;4989812;28;20620;-66
2022/10/03 05:34:35;;;;;;;0.00;0.00;;;;;;;6.64;100.00;99669.28;4987829;28;20236;-66
2022/10/03 05:37:24;;;;;;;0.00;0.00;;;;;;;6.61;100.00;99671.25;4985582;28;20232;-66
2022/10/03 05:39:58;;;;;;;0.00;0.00;;;;;;;6.52;100.00;99661.47;4986163;28;20303;-66
2022/10/03 05:42:55;;;;;;;0.00;0.00;;;;;;;6.47;100.00;99665.19;4988788;28;20295;-66
2022/10/03 05:45:29;;;;;;;0.00;0.00;;;;;;;6.49;100.00;99671.13;4982330;28;20233;-66
2022/10/03 05:48:12;;;;;;;0.00;0.00;;;;;;;6.52;100.00;99666.66;4986248;28;20856;-66
2022/10/03 05:51:12;;;;;;;0.00;0.00;;;;;;;6.43;100.00;99663.72;4988768;28;20231;-66
2022/10/03 05:54:17;;;;;;;0.00;0.00;;;;;;;6.44;100.00;99673.16;4986042;28;20697;-66
2022/10/03 05:57:12;;;;;;;0.00;0.00;;;;;;;6.48;100.00;99677.22;4987695;28;20232;-66
2022/10/03 06:00:00;;;;;;;0.00;0.00;;;;;;;6.53;100.00;99674.31;4986050;28;20243;-66
2022/10/03 06:02:57;;;;;;;0.00;0.00;;;;;;;6.53;100.00;99686.47;4985887;28;20240;-66
2022/10/03 06:05:30;;;;;;;0.00;0.00;;;;;;;6.58;100.00;99684.41;4985798;28;20229;-66
2022/10/03 06:08:32;;;;;;;0.00;0.00;;;;;;;6.59;100.00;99680.91;4988128;28;20229;-66
2022/10/03 06:11:12;;;;;;;0.00;0.00;;;;;;;6.71;100.00;99684.44;4985041;28;20228;-66
2022/10/03 06:13:58;;;;;;;0.00;0.00;;;;;;;6.75;100.00;99680.72;4988953;28;20275;-66
2022/10/03 06:16:37;;;;;;;0.00;0.00;;;;;;;6.79;100.00;99684.78;4989027;28;20233;-66
2022/10/03 06:19:14;;;;;;;0.00;0.00;;;;;;;6.82;100.00;99694.16;4987674;28;20720;-66
2022/10/03 06:22:22;;;;;;;0.00;0.00;;;;;;;6.88;100.00;99696.34;4990920;28;20245;-66
2022/10/03 06:25:28;;;;;;;0.00;0.00;;;;;;;6.92;100.00;99701.22;4985545;28;20229;-66
2022/10/03 06:28:28;;;;;;;0.00;0.00;;;;;;;6.96;100.00;99708.81;4982186;28;20284;-66
2022/10/03 06:31:22;;;;;;;0.00;0.00;;;;;;;7.01;100.00;99704.16;4985793;28;20229;-66
2022/10/03 06:34:20;;;;;;;0.00;0.00;;;;;;;7.03;100.00;99710.06;4989641;28;20296;-66
2022/10/03 06:37:16;;;;;;;0.00;0.00;;;;;;;7.07;100.00;99698.53;4968891;28;20236;-66
2022/10/03 06:40:18;;;;;;;0.00;0.00;;;;;;;7.07;100.00;99701.97;4985616;28;20648;-66
2022/10/03 06:43:29;;;;;;;0.00;0.00;;;;;;;7.07;100.00;99709.75;4958248;28;20240;-66
2022/10/03 06:46:44;;;;;;;0.00;0.00;;;;;;;7.09;100.00;99704.47;4958229;28;20231;-66
2022/10/03 06:49:39;;;;;;;0.00;0.00;;;;;;;7.10;100.00;99706.13;4979574;28;20237;-66
2022/10/03 06:52:31;;;;;;;0.00;0.00;;;;;;;7.15;100.00;99714.44;4984256;28;20241;-66
2022/10/03 06:55:46;;;;;;;0.00;0.00;;;;;;;7.18;100.00;99716.00;4985316;28;20295;-66
2022/10/03 06:58:39;;;;;;;0.00;0.00;;;;;;;7.21;100.00;99716.63;4984872;28;20317;-66
2022/10/03 07:01:36;;;;;;;0.00;0.00;;;;;;;7.31;100.00;99713.44;4984959;28;20287;-64
2022/10/03 07:04:31;;;;;;;0.00;0.00;;;;;;;7.36;100.00;99722.56;4945212;28;20233;-65
2022/10/03 07:07:13;;;;;;;0.00;0.00;;;;;;;7.40;100.00;99731.00;4988659;28;20228;-64
2022/10/03 07:10:17;;;;;;;0.00;0.00;;;;;;;7.46;100.00;99724.53;4989060;28;20222;-64
2022/10/03 07:13:16;;;;;;;0.03;0.03;;;;;;;7.59;100.00;99734.94;4948394;28;20296;-64
2022/10/03 07:16:23;;;;;;;0.00;0.00;;;;;;;7.69;100.00;99735.97;4983917;28;20233;-64
2022/10/03 07:19:35;;;;;;;0.00;0.00;;;;;;;7.83;100.00;99730.66;4984956;28;20641;-64
2022/10/03 07:22:47;;;;;;;0.00;0.00;;;;;;;8.02;100.00;99731.97;4947811;28;20369;-64
2022/10/03 07:26:05;;;;;;;0.00;0.00;;;;;;;8.24;100.00;99738.28;4984724;28;20221;-64
2022/10/03 07:29:11;;;;;;;0.00;0.00;;;;;;;8.53;100.00;99733.63;4913925;29;20258;-55
2022/10/03 07:31:54;;;;;;;0.00;0.00;;;;;;;8.60;100.00;99744.41;4913518;29;20273;-64
2022/10/03 07:35:07;;;;;;;0.00;0.00;;;;;;;8.59;100.00;99737.53;4978554;28;20272;-64
2022/10/03 07:41:20;;;;;;;0.03;0.03;;;;;;;9.16;100.00;99733.38;4983542;28;20249;-59
2022/10/03 07:44:14;;;;;;;0.00;0.00;;;;;;;9.19;100.00;99747.97;4980256;28;20235;-59
2022/10/03 07:47:20;;;;;;;0.07;0.07;;;;;;;9.42;100.00;99742.81;4984449;28;20302;-58
2022/10/03 07:50:04;;;;;;;0.00;0.00;;;;;;;9.34;100.00;99747.78;4985290;28;20231;-58
2022/10/03 07:52:59;;;;;;;0.00;0.00;;;;;;;9.40;100.00;99745.53;4983582;28;20233;-58
2022/10/03 07:55:50;;;;;;;0.00;0.00;;;;;;;9.27;100.00;99742.19;4976852;28;20257;-63
2022/10/03 07:58:33;;;;;;;0.00;0.00;;;;;;;9.36;100.00;99741.50;4983273;28;20300;-63
2022/10/03 08:01:27;;;;;;;0.00;0.00;;;;;;;9.66;100.00;99747.09;4985868;28;20285;-62
2022/10/03 08:04:14;;;;;;;0.00;0.00;;;;;;;9.89;100.00;99746.16;4983400;28;20233;-62
2022/10/03 08:06:44;;;;;;;0.00;0.00;;;;;;;9.94;100.00;99747.59;4984744;28;20281;-62
2022/10/03 08:09:29;;;;;;;0.00;0.00;;;;;;;9.92;100.00;99750.31;4983367;28;20297;-62
2022/10/03 08:12:32;;;;;;;0.00;0.00;;;;;;;10.11;100.00;99754.09;4983673;28;20249;-62
2022/10/03 08:15:09;;;;;;;0.00;0.00;;;;;;;10.25;100.00;99756.44;4983341;28;20241;-62
2022/10/03 08:18:11;;;;;;;0.00;0.00;;;;;;;10.09;100.00;99764.66;4986528;28;20237;-62
2022/10/03 08:20:51;;;;;;;0.00;0.00;;;;;;;10.02;100.00;99760.88;4986946;28;20297;-62
2022/10/03 08:23:54;;;;;;;0.00;0.00;;;;;;;10.18;100.00;99760.47;4983907;28;20230;-62
2022/10/03 08:26:37;;;;;;;0.00;0.00;;;;;;;10.39;100.00;99759.75;4941498;28;20230;-62
2022/10/03 08:29:23;;;;;;;0.00;0.00;;;;;;;10.19;100.00;99767.38;4950988;28;20333;-63
2022/10/03 08:32:36;;;;;;;0.00;0.00;;;;;;;10.29;100.00;99764.88;4981537;28;20293;-63
2022/10/03 08:35:20;;;;;;;0.00;0.00;;;;;;;10.58;100.00;99767.00;4982282;28;20280;-63
2022/10/03 08:38:19;;;;;;;0.00;0.00;;;;;;;10.82;100.00;99773.78;4987408;28;20296;-63
2022/10/03 08:41:28;;;;;;;0.00;0.00;;;;;;;10.76;100.00;99769.91;4983470;28;20666;-63
2022/10/03 08:44:21;;;;;;;0.00;0.00;;;;;;;10.91;100.00;99780.88;4981595;28;20293;-63
2022/10/03 08:47:16;;;;;;;0.00;0.00;;;;;;;10.98;100.00;99784.66;4986169;28;20353;-63
2022/10/03 08:50:20;;;;;;;0.00;0.00;;;;;;;11.18;100.00;99788.25;4984174;28;20363;-63
2022/10/03 08:53:11;;;;;;;0.00;0.00;;;;;;;11.29;100.00;99773.47;4981374;28;20247;-63
2022/10/03 08:55:48;;;;;;;0.00;0.00;;;;;;;11.08;100.00;99780.34;4983296;28;20588;-63
2022/10/03 08:58:38;;;;;;;0.00;0.00;;;;;;;11.20;100.00;99775.06;4983582;28;20243;-63
2022/10/03 09:01:29;;;;;;;0.00;0.00;;;;;;;11.43;100.00;99780.19;4982649;28;20247;-63
2022/10/03 09:04:30;;;;;;;0.00;0.00;;;;;;;11.52;100.00;99776.78;4983404;28;20301;-63
2022/10/03 09:07:22;;;;;;;0.00;0.00;;;;;;;11.58;100.00;99773.66;4983229;28;20244;-63
2022/10/03 09:10:23;;;;;;;0.00;0.00;;;;;;;11.35;100.00;99776.41;4985153;28;20247;-63
2022/10/03 09:13:25;;;;;;;0.00;0.00;;;;;;;11.20;100.00;99767.22;4983080;28;20290;-63
2022/10/03 09:16:17;;;;;;;0.00;0.00;;;;;;;11.37;100.00;99769.28;4980207;28;20243;-63
2022/10/03 09:19:25;;;;;;;0.00;0.00;;;;;;;11.68;100.00;99773.72;4986012;28;20233;-63
2022/10/03 09:22:12;;;;;;;0.00;0.00;;;;;;;11.83;100.00;99774.19;4980011;28;20235;-63
2022/10/03 09:25:06;;;;;;;0.00;0.00;;;;;;;11.90;100.00;99774.50;4985580;28;20240;-63
2022/10/03 09:27:54;;;;;;;0.00;0.00;;;;;;;12.18;100.00;99772.16;4983309;28;20302;-63
2022/10/03 09:30:25;;;;;;;0.00;0.00;;;;;;;12.13;100.00;99774.34;4982035;28;20300;-63
2022/10/03 09:33:28;;;;;;;0.00;0.00;;;;;;;12.32;100.00;99779.63;4982543;28;20291;-63
2022/10/03 09:36:10;;;;;;;0.00;0.00;;;;;;;12.35;100.00;99773.31;4982363;28;20294;-63
2022/10/03 09:39:10;;;;;;;0.00;0.00;;;;;;;12.34;100.00;99777.69;4985808;28;20263;-63
2022/10/03 09:42:10;;;;;;;0.00;0.00;;;;;;;12.28;100.00;99772.19;4986931;28;20230;-63
2022/10/03 09:45:12;;;;;;;0.00;0.00;;;;;;;12.48;100.00;99768.66;4987186;28;20639;-63
2022/10/03 09:48:16;;;;;;;0.00;0.00;;;;;;;12.75;100.00;99774.19;4986366;28;20279;-63
2022/10/03 09:51:30;;;;;;;0.00;0.00;;;;;;;12.69;100.00;99765.91;4986096;28;20677;-63
2022/10/03 09:54:42;;;;;;;0.00;0.00;;;;;;;12.77;100.00;99764.41;4984072;28;20239;-63
2022/10/03 09:57:51;;;;;;;0.00;0.00;;;;;;;12.72;100.00;99764.00;4983291;28;20712;-63
2022/10/03 10:00:22;;;;;;;0.00;0.00;;;;;;;12.85;100.00;99765.38;4986000;28;20236;-63
2022/10/03 10:03:32;;;;;;;0.00;0.00;;;;;;;12.82;100.00;99765.66;4988414;28;20263;-63
2022/10/03 10:06:27;;;;;;;0.00;0.00;;;;;;;12.72;100.00;99762.19;4965107;28;20795;-63
2022/10/03 10:09:25;;;;;;;0.00;0.00;;;;;;;12.73;100.00;99760.41;4989542;28;20639;-63
2022/10/03 10:12:07;;;;;;;0.00;0.00;;;;;;;12.76;100.00;99763.56;4984439;28;20768;-63
2022/10/03 10:15:03;;;;;;;0.00;0.00;;;;;;;12.88;100.00;99766.06;4988225;28;20566;-63
2022/10/03 10:18:03;;;;;;;0.00;0.00;;;;;;;12.92;100.00;99765.66;4986653;28;20240;-63
2022/10/03 10:21:07;;;;;;;0.00;0.00;;;;;;;12.96;100.00;99760.97;4986621;28;20237;-63
2022/10/03 10:23:48;;;;;;;0.00;0.00;;;;;;;13.29;100.00;99769.38;4980328;28;20220;-63
2022/10/03 10:26:44;;;;;;;0.00;0.00;;;;;;;13.86;100.00;99768.53;4988941;28;20283;-63
2022/10/03 10:29:37;;;;;;;0.00;0.00;;;;;;;14.29;100.00;99771.56;4987743;28;20312;-63
2022/10/03 10:32:50;;;;;;;0.00;0.00;;;;;;;14.65;96.40;99774.22;4987873;28;20242;-64
2022/10/03 10:35:44;;;;;;;0.00;0.00;;;;;;;14.94;96.07;99772.38;4902896;29;20242;-64
2022/10/03 10:38:25;;;;;;;0.00;0.00;;;;;;;15.10;95.50;99771.69;4859571;29;20300;-64
2022/10/03 10:41:35;;;;;;;0.00;0.00;;;;;;;15.41;92.34;99760.72;4962316;28;20319;-64
2022/10/03 10:44:50;;;;;;;0.00;0.00;;;;;;;15.56;86.19;99768.91;4986177;28;20635;-64
2022/10/03 10:47:51;;;;;;;0.00;0.00;;;;;;;15.11;88.24;99758.38;4986115;28;21039;-64
2022/10/03 10:50:55;;;;;;;0.00;0.00;;;;;;;14.81;87.50;99762.25;4984720;28;20228;-64
2022/10/03 10:54:03;;;;;;;0.00;0.00;;;;;;;14.87;88.06;99759.81;4970673;28;20301;-64
2022/10/03 10:57:02;;;;;;;0.00;0.00;;;;;;;15.18;87.29;99758.63;4950603;28;20268;-64
2022/10/03 11:00:14;;;;;;;0.00;0.00;;;;;;;14.99;89.50;99762.22;4986861;28;20686;-64
2022/10/03 11:03:19;;;;;;;0.00;0.00;;;;;;;15.27;84.84;99764.75;4984689;28;20319;-64
2022/10/03 11:06:22;;;;;;;0.00;0.00;;;;;;;15.07;89.01;99758.84;4984495;28;20263;-64
2022/10/03 11:09:34;;;;;;;0.00;0.00;;;;;;;15.16;86.12;99769.28;4985205;28;20224;-64
2022/10/03 11:12:50;;;;;;;0.00;0.00;;;;;;;15.26;86.05;99760.47;4982407;28;20332;-64
2022/10/03 11:15:50;;;;;;;0.00;0.00;;;;;;;15.27;85.95;99754.22;4988067;28;20262;-64
2022/10/03 11:19:05;;;;;;;0.00;0.00;;;;;;;15.29;84.29;99754.91;4985194;28;20257;-64
2022/10/03 11:22:22;;;;;;;0.00;0.00;;;;;;;15.04;83.12;99752.91;4984559;28;20259;-64
2022/10/03 11:25:33;;;;;;;0.00;0.00;;;;;;;15.19;82.88;99755.00;4986801;28;20617;-64
2022/10/03 11:28:40;;;;;;;0.00;0.00;;;;;;;15.29;81.62;99747.00;4965410;28;20239;-64
2022/10/03 11:31:46;;;;;;;0.00;0.00;;;;;;;15.29;82.41;99750.47;4983740;28;20284;-64
2022/10/03 11:34:56;;;;;;;0.00;0.00;;;;;;;15.11;84.48;99747.06;4961559;28;20232;-64
2022/10/03 11:37:38;;;;;;;0.00;0.00;;;;;;;15.13;85.78;99739.84;4987344;28;20234;-63
2022/10/03 11:40:23;;;;;;;0.00;0.00;;;;;;;15.21;85.57;99739.91;4985859;28;20284;-63
2022/10/03 11:42:58;;;;;;;0.00;0.00;;;;;;;15.35;84.85;99727.97;4987102;28;20243;-63
2022/10/03 11:45:31;;;;;;;0.00;0.00;;;;;;;15.65;83.04;99733.75;4985278;28;20237;-63
2022/10/03 11:48:18;;;;;;;0.00;0.00;;;;;;;15.50;78.42;99731.69;4984070;28;20229;-63
2022/10/03 11:50:49;;;;;;;0.00;0.00;;;;;;;15.10;80.09;99727.81;4987280;28;20227;-63
2022/10/03 11:53:30;;;;;;;0.00;0.00;;;;;;;15.34;80.60;99727.16;4984396;28;20626;-63
2022/10/03 11:56:11;;;;;;;0.00;0.00;;;;;;;15.12;81.46;99731.09;4983411;28;20234;-63
2022/10/03 11:58:59;;;;;;;0.00;0.00;;;;;;;14.99;82.81;99722.78;4986734;28;20230;-63
2022/10/03 12:01:36;;;;;;;0.00;0.00;;;;;;;15.16;82.30;99721.94;4975087;28;20234;-63
2022/10/03 12:04:16;;;;;;;0.00;0.00;;;;;;;15.37;81.44;99733.09;4982814;28;20241;-63
2022/10/03 12:09:58;;;;;;;0.00;0.00;;;;;;;15.72;79.83;99720.78;4985399;28;20244;-64
2022/10/03 12:12:34;;;;;;;0.00;0.00;;;;;;;15.44;81.26;99715.69;4985028;28;20326;-63
2022/10/03 12:15:14;;;;;;;0.00;0.00;;;;;;;15.14;79.34;99716.00;4984535;28;20232;-63
2022/10/03 12:17:48;;;;;;;0.00;0.00;;;;;;;15.74;79.07;99719.66;4986724;28;20678;-63
2022/10/03 12:20:21;;;;;;;0.00;0.00;;;;;;;15.42;79.73;99715.00;4983832;28;20230;-63
2022/10/03 12:22:56;;;;;;;0.00;0.00;;;;;;;15.53;82.25;99716.56;4988616;28;20650;-63
2022/10/03 12:25:24;;;;;;;0.00;0.00;;;;;;;15.50;79.88;99715.06;4985941;28;20630;-64
2022/10/03 12:28:03;;;;;;;0.00;0.00;;;;;;;15.00;79.91;99709.50;4982080;28;20268;-64
2022/10/03 12:30:39;;;;;;;0.00;0.00;;;;;;;15.03;78.55;99701.31;4987072;28;20242;-63
2022/10/03 12:33:33;;;;;;;0.00;0.00;;;;;;;14.84;79.36;99696.22;4984548;28;20263;-63
2022/10/03 12:36:05;;;;;;;0.00;0.00;;;;;;;14.92;81.66;99691.03;4986926;28;20240;-63
2022/10/03 12:38:49;;;;;;;0.00;0.00;;;;;;;15.43;80.16;99690.34;4987185;28;20725;-63
2022/10/03 12:41:24;;;;;;;0.00;0.00;;;;;;;15.78;80.82;99696.47;4973417;28;20240;-63
2022/10/03 12:44:10;;;;;;;0.00;0.00;;;;;;;16.21;77.08;99691.19;4982674;28;20244;-63
2022/10/03 12:46:45;;;;;;;0.00;0.00;;;;;;;16.34;76.79;99694.19;4985722;28;20229;-63
2022/10/03 12:49:20;;;;;;;0.00;0.00;;;;;;;16.37;77.79;99695.69;4985428;28;20242;-64
2022/10/03 12:51:55;;;;;;;0.00;0.00;;;;;;;15.88;73.68;99691.91;4986453;28;20230;-64
2022/10/03 12:54:39;;;;;;;0.00;0.00;;;;;;;15.87;76.06;99695.53;4984837;28;20237;-64
2022/10/03 12:57:39;;;;;;;0.00;0.00;;;;;;;16.25;70.26;99704.88;4985002;28;20276;-63
2022/10/03 13:00:14;;;;;;;0.00;0.00;;;;;;;15.92;70.58;99693.25;4983157;28;20242;-63
2022/10/03 13:02:48;;;;;;;0.00;0.00;;;;;;;15.58;69.93;99680.09;4985592;28;20243;-64
2022/10/03 13:05:36;;;;;;;0.00;0.00;;;;;;;15.46;73.01;99683.00;4984211;28;21153;-64
2022/10/03 13:08:14;;;;;;;0.00;0.00;;;;;;;15.52;74.55;99676.25;4982670;28;20587;-64
2022/10/03 13:10:46;;;;;;;0.00;0.00;;;;;;;15.30;75.61;99675.00;4985736;28;20234;-64
2022/10/03 13:13:24;;;;;;;0.00;0.00;;;;;;;15.31;78.92;99676.66;4983317;28;20860;-64
2022/10/03 13:16:23;;;;;;;0.00;0.00;;;;;;;15.50;75.07;99675.59;4969774;28;20302;-64
2022/10/03 13:18:58;;;;;;;0.00;0.00;;;;;;;15.42;74.02;99673.75;4988801;28;20268;-64
2022/10/03 13:21:43;;;;;;;0.00;0.00;;;;;;;15.37;74.62;99676.03;4991682;28;20236;-64
2022/10/03 13:24:24;;;;;;;0.00;0.00;;;;;;;15.47;77.05;99671.50;4987313;28;20234;-64